sensor_id;sensor_type;location;lat;lon;timestamp;temperature;humidity
3334;DHT22;1679;50.392;8.008;2023-01-09T00:00:42;8.30;99.90
3334;DHT22;1679;50.392;8.008;2023-01-09T00:03:08;8.30;99.90
3334;DHT22;1679;50.392;8.008;2023-01-09T00:05:33;8.30;99.90
3334;DHT22;1679;50.392;8.008;2023-01-09T00:07:59;8.30;99.90
3334;DHT22;1679;50.392;8.008;2023-01-09T00:10:24;8.30;99.90
3334;DHT22;1679;50.392;8.008;2023-01-09T00:12:50;8.30;99.90
3334;DHT22;1679;50.392;8.008;2023-01-09T00:15:16;8.30;99.90
3334;DHT22;1679;50.392;8.008;2023-01-09T00:17:41;8.30;99.90
3334;DHT22;1679;50.392;8.008;2023-01-09T00:20:09;8.30;99.90
3334;DHT22;1679;50.392;8.008;2023-01-09T00:22:36;8.30;99.90
3334;DHT22;1679;50.392;8.008;2023-01-09T00:25:02;8.30;99.90
3334;DHT22;1679;50.392;8.008;2023-01-09T00:27:32;8.20;99.90
3334;DHT22;1679;50.392;8.008;2023-01-09T00:29:58;8.20;99.90
3334;DHT22;1679;50.392;8.008;2023-01-09T00:32:24;8.20;99.90
3334;DHT22;1679;50.392;8.008;2023-01-09T00:34:49;8.20;99.90
3334;DHT22;1679;50.392;8.008;2023-01-09T00:37:15;8.10;99.90
3334;DHT22;1679;50.392;8.008;2023-01-09T00:39:41;8.10;99.90
3334;DHT22;1679;50.392;8.008;2023-01-09T00:42:11;8.20;99.90
3334;DHT22;1679;50.392;8.008;2023-01-09T00:44:43;8.10;99.90
3334;DHT22;1679;50.392;8.008;2023-01-09T00:47:13;8.10;99.90
3334;DHT22;1679;50.392;8.008;2023-01-09T00:49:41;8.10;99.90
3334;DHT22;1679;50.392;8.008;2023-01-09T00:52:09;8.10;99.90
3334;DHT22;1679;50.392;8.008;2023-01-09T00:54:38;8.10;99.90
3334;DHT22;1679;50.392;8.008;2023-01-09T00:57:05;7.90;99.90
3334;DHT22;1679;50.392;8.008;2023-01-09T00:59:31;7.80;99.90
3334;DHT22;1679;50.392;8.008;2023-01-09T01:01:57;7.70;99.90
3334;DHT22;1679;50.392;8.008;2023-01-09T01:04:23;7.60;99.90
3334;DHT22;1679;50.392;8.008;2023-01-09T01:07:07;7.60;99.90
3334;DHT22;1679;50.392;8.008;2023-01-09T01:09:52;7.60;99.90
3334;DHT22;1679;50.392;8.008;2023-01-09T01:12:18;7.50;99.90
3334;DHT22;1679;50.392;8.008;2023-01-09T01:14:44;7.50;99.90
3334;DHT22;1679;50.392;8.008;2023-01-09T01:17:10;7.50;99.90
3334;DHT22;1679;50.392;8.008;2023-01-09T01:19:36;7.40;99.90
3334;DHT22;1679;50.392;8.008;2023-01-09T01:22:01;7.30;99.90
3334;DHT22;1679;50.392;8.008;2023-01-09T01:24:29;7.30;99.90
3334;DHT22;1679;50.392;8.008;2023-01-09T01:26:55;7.30;99.90
3334;DHT22;1679;50.392;8.008;2023-01-09T01:29:21;7.20;99.90
3334;DHT22;1679;50.392;8.008;2023-01-09T01:31:46;7.30;99.90
3334;DHT22;1679;50.392;8.008;2023-01-09T01:34:12;7.20;99.90
3334;DHT22;1679;50.392;8.008;2023-01-09T01:36:41;7.20;99.90
3334;DHT22;1679;50.392;8.008;2023-01-09T01:39:06;7.20;99.90
3334;DHT22;1679;50.392;8.008;2023-01-09T01:41:32;7.10;99.90
3334;DHT22;1679;50.392;8.008;2023-01-09T01:44:02;7.10;99.90
3334;DHT22;1679;50.392;8.008;2023-01-09T01:46:30;7.10;99.90
3334;DHT22;1679;50.392;8.008;2023-01-09T01:49:12;7.10;99.90
3334;DHT22;1679;50.392;8.008;2023-01-09T01:51:44;7.10;99.90
3334;DHT22;1679;50.392;8.008;2023-01-09T01:54:19;7.10;99.90
3334;DHT22;1679;50.392;8.008;2023-01-09T01:56:49;7.00;99.90
3334;DHT22;1679;50.392;8.008;2023-01-09T01:59:27;7.00;99.90
3334;DHT22;1679;50.392;8.008;2023-01-09T02:01:56;6.90;99.90
3334;DHT22;1679;50.392;8.008;2023-01-09T02:04:22;6.90;99.90
3334;DHT22;1679;50.392;8.008;2023-01-09T02:06:50;6.90;99.90
3334;DHT22;1679;50.392;8.008;2023-01-09T02:09:17;6.90;99.90
3334;DHT22;1679;50.392;8.008;2023-01-09T02:11:55;7.00;99.90
3334;DHT22;1679;50.392;8.008;2023-01-09T02:14:25;6.90;99.90
3334;DHT22;1679;50.392;8.008;2023-01-09T02:20:08;6.90;99.90
3334;DHT22;1679;50.392;8.008;2023-01-09T02:26:05;6.80;99.90
3334;DHT22;1679;50.392;8.008;2023-01-09T02:34:39;6.80;99.90
3334;DHT22;1679;50.392;8.008;2023-01-09T02:37:09;6.80;99.90
3334;DHT22;1679;50.392;8.008;2023-01-09T02:39:50;6.80;99.90
3334;DHT22;1679;50.392;8.008;2023-01-09T02:42:24;6.80;99.90
3334;DHT22;1679;50.392;8.008;2023-01-09T02:44:50;6.80;99.90
3334;DHT22;1679;50.392;8.008;2023-01-09T02:49:53;6.70;99.90
3334;DHT22;1679;50.392;8.008;2023-01-09T02:52:28;6.70;99.90
3334;DHT22;1679;50.392;8.008;2023-01-09T03:03:31;6.70;99.90
3334;DHT22;1679;50.392;8.008;2023-01-09T03:09:00;6.70;99.90
3334;DHT22;1679;50.392;8.008;2023-01-09T03:11:31;6.70;99.90
3334;DHT22;1679;50.392;8.008;2023-01-09T03:14:05;6.70;99.90
3334;DHT22;1679;50.392;8.008;2023-01-09T03:16:36;6.70;99.90
3334;DHT22;1679;50.392;8.008;2023-01-09T03:19:13;6.70;99.90
3334;DHT22;1679;50.392;8.008;2023-01-09T03:21:39;6.80;99.90
3334;DHT22;1679;50.392;8.008;2023-01-09T03:24:06;6.80;99.90
3334;DHT22;1679;50.392;8.008;2023-01-09T03:26:32;6.90;99.90
3334;DHT22;1679;50.392;8.008;2023-01-09T03:28:57;6.90;99.90
3334;DHT22;1679;50.392;8.008;2023-01-09T03:31:25;6.90;99.90
3334;DHT22;1679;50.392;8.008;2023-01-09T03:33:50;6.90;99.90
3334;DHT22;1679;50.392;8.008;2023-01-09T03:36:17;6.90;99.90
3334;DHT22;1679;50.392;8.008;2023-01-09T03:38:43;7.00;99.90
3334;DHT22;1679;50.392;8.008;2023-01-09T03:41:08;6.90;99.90
3334;DHT22;1679;50.392;8.008;2023-01-09T03:43:34;6.90;99.90
3334;DHT22;1679;50.392;8.008;2023-01-09T03:46:00;6.90;99.90
3334;DHT22;1679;50.392;8.008;2023-01-09T03:48:27;6.90;99.90
3334;DHT22;1679;50.392;8.008;2023-01-09T03:50:55;6.90;99.90
3334;DHT22;1679;50.392;8.008;2023-01-09T03:53:25;6.80;99.90
3334;DHT22;1679;50.392;8.008;2023-01-09T03:55:54;6.90;99.90
3334;DHT22;1679;50.392;8.008;2023-01-09T03:58:21;6.80;99.90
3334;DHT22;1679;50.392;8.008;2023-01-09T04:00:47;6.80;99.90
3334;DHT22;1679;50.392;8.008;2023-01-09T04:03:14;6.90;99.90
3334;DHT22;1679;50.392;8.008;2023-01-09T04:05:42;6.80;99.90
3334;DHT22;1679;50.392;8.008;2023-01-09T04:08:07;6.80;99.90
3334;DHT22;1679;50.392;8.008;2023-01-09T04:10:33;6.70;99.90
3334;DHT22;1679;50.392;8.008;2023-01-09T04:12:59;6.60;99.90
3334;DHT22;1679;50.392;8.008;2023-01-09T04:15:25;6.70;99.90
3334;DHT22;1679;50.392;8.008;2023-01-09T04:17:51;6.60;99.90
3334;DHT22;1679;50.392;8.008;2023-01-09T04:20:18;6.70;99.90
3334;DHT22;1679;50.392;8.008;2023-01-09T04:22:43;6.70;99.90
3334;DHT22;1679;50.392;8.008;2023-01-09T04:25:10;6.70;99.90
3334;DHT22;1679;50.392;8.008;2023-01-09T04:27:37;6.70;99.90
3334;DHT22;1679;50.392;8.008;2023-01-09T04:30:03;6.70;99.90
3334;DHT22;1679;50.392;8.008;2023-01-09T04:32:29;6.70;99.90
3334;DHT22;1679;50.392;8.008;2023-01-09T04:34:55;6.70;99.90
3334;DHT22;1679;50.392;8.008;2023-01-09T04:37:21;6.60;99.90
3334;DHT22;1679;50.392;8.008;2023-01-09T04:39:48;6.60;99.90
3334;DHT22;1679;50.392;8.008;2023-01-09T04:42:15;6.60;99.90
3334;DHT22;1679;50.392;8.008;2023-01-09T04:44:41;6.50;99.90
3334;DHT22;1679;50.392;8.008;2023-01-09T04:47:06;6.50;99.90
3334;DHT22;1679;50.392;8.008;2023-01-09T04:49:32;6.50;99.90
3334;DHT22;1679;50.392;8.008;2023-01-09T04:51:58;6.40;99.90
3334;DHT22;1679;50.392;8.008;2023-01-09T04:54:24;6.40;99.90
3334;DHT22;1679;50.392;8.008;2023-01-09T04:56:49;6.30;99.90
3334;DHT22;1679;50.392;8.008;2023-01-09T04:59:16;6.30;99.90
3334;DHT22;1679;50.392;8.008;2023-01-09T05:01:41;6.20;99.90
3334;DHT22;1679;50.392;8.008;2023-01-09T05:04:08;6.20;99.90
3334;DHT22;1679;50.392;8.008;2023-01-09T05:06:34;6.20;99.90
3334;DHT22;1679;50.392;8.008;2023-01-09T05:09:00;6.30;99.90
3334;DHT22;1679;50.392;8.008;2023-01-09T05:11:27;6.30;99.90
3334;DHT22;1679;50.392;8.008;2023-01-09T05:13:53;6.20;99.90
3334;DHT22;1679;50.392;8.008;2023-01-09T05:16:19;6.20;99.90
3334;DHT22;1679;50.392;8.008;2023-01-09T05:18:46;6.10;99.90
3334;DHT22;1679;50.392;8.008;2023-01-09T05:21:12;6.10;99.90
3334;DHT22;1679;50.392;8.008;2023-01-09T05:23:38;6.10;99.90
3334;DHT22;1679;50.392;8.008;2023-01-09T05:26:04;6.00;99.90
3334;DHT22;1679;50.392;8.008;2023-01-09T05:28:30;6.00;99.90
3334;DHT22;1679;50.392;8.008;2023-01-09T05:30:56;6.00;99.90
3334;DHT22;1679;50.392;8.008;2023-01-09T05:33:22;6.00;99.90
3334;DHT22;1679;50.392;8.008;2023-01-09T05:35:47;5.90;99.90
3334;DHT22;1679;50.392;8.008;2023-01-09T05:38:13;5.90;99.90
3334;DHT22;1679;50.392;8.008;2023-01-09T05:40:39;5.90;99.90
3334;DHT22;1679;50.392;8.008;2023-01-09T05:43:04;5.90;99.90
3334;DHT22;1679;50.392;8.008;2023-01-09T05:45:30;6.00;99.90
3334;DHT22;1679;50.392;8.008;2023-01-09T05:47:55;6.10;99.90
3334;DHT22;1679;50.392;8.008;2023-01-09T05:50:21;6.10;99.90
3334;DHT22;1679;50.392;8.008;2023-01-09T05:52:47;6.10;99.90
3334;DHT22;1679;50.392;8.008;2023-01-09T05:55:12;6.10;99.90
3334;DHT22;1679;50.392;8.008;2023-01-09T05:57:39;6.10;99.90
3334;DHT22;1679;50.392;8.008;2023-01-09T06:00:05;6.00;99.90
3334;DHT22;1679;50.392;8.008;2023-01-09T06:02:31;6.00;99.90
3334;DHT22;1679;50.392;8.008;2023-01-09T06:04:57;6.00;99.90
3334;DHT22;1679;50.392;8.008;2023-01-09T06:07:23;6.00;99.90
3334;DHT22;1679;50.392;8.008;2023-01-09T06:09:48;6.00;99.90
3334;DHT22;1679;50.392;8.008;2023-01-09T06:12:14;6.00;99.90
3334;DHT22;1679;50.392;8.008;2023-01-09T06:14:39;6.00;99.90
3334;DHT22;1679;50.392;8.008;2023-01-09T06:17:05;6.10;99.90
3334;DHT22;1679;50.392;8.008;2023-01-09T06:19:31;6.00;99.90
3334;DHT22;1679;50.392;8.008;2023-01-09T06:21:56;6.00;99.90
3334;DHT22;1679;50.392;8.008;2023-01-09T06:24:24;6.00;99.90
3334;DHT22;1679;50.392;8.008;2023-01-09T06:26:50;5.90;99.90
3334;DHT22;1679;50.392;8.008;2023-01-09T06:29:16;5.90;99.90
3334;DHT22;1679;50.392;8.008;2023-01-09T06:31:41;5.90;99.90
3334;DHT22;1679;50.392;8.008;2023-01-09T06:34:07;5.90;99.90
3334;DHT22;1679;50.392;8.008;2023-01-09T06:36:33;5.90;99.90
3334;DHT22;1679;50.392;8.008;2023-01-09T06:38:58;6.00;99.90
3334;DHT22;1679;50.392;8.008;2023-01-09T06:41:24;6.00;99.90
3334;DHT22;1679;50.392;8.008;2023-01-09T06:43:49;6.00;99.90
3334;DHT22;1679;50.392;8.008;2023-01-09T06:46:18;6.10;99.90
3334;DHT22;1679;50.392;8.008;2023-01-09T06:48:44;6.10;99.90
3334;DHT22;1679;50.392;8.008;2023-01-09T06:51:10;6.10;99.90
3334;DHT22;1679;50.392;8.008;2023-01-09T06:53:35;6.10;99.90
3334;DHT22;1679;50.392;8.008;2023-01-09T06:56:01;6.10;99.90
3334;DHT22;1679;50.392;8.008;2023-01-09T06:58:27;6.20;99.90
3334;DHT22;1679;50.392;8.008;2023-01-09T07:00:54;6.20;99.90
3334;DHT22;1679;50.392;8.008;2023-01-09T07:03:21;6.20;99.90
3334;DHT22;1679;50.392;8.008;2023-01-09T07:05:48;6.30;99.90
3334;DHT22;1679;50.392;8.008;2023-01-09T07:08:14;6.20;99.90
3334;DHT22;1679;50.392;8.008;2023-01-09T07:10:42;6.30;99.90
3334;DHT22;1679;50.392;8.008;2023-01-09T07:13:08;6.30;99.90
3334;DHT22;1679;50.392;8.008;2023-01-09T07:15:34;6.30;99.90
3334;DHT22;1679;50.392;8.008;2023-01-09T07:17:59;6.40;99.90
3334;DHT22;1679;50.392;8.008;2023-01-09T07:20:25;6.40;99.90
3334;DHT22;1679;50.392;8.008;2023-01-09T07:22:52;6.40;99.90
3334;DHT22;1679;50.392;8.008;2023-01-09T07:25:18;6.40;99.90
3334;DHT22;1679;50.392;8.008;2023-01-09T07:27:44;6.40;99.90
3334;DHT22;1679;50.392;8.008;2023-01-09T07:30:10;6.40;99.90
3334;DHT22;1679;50.392;8.008;2023-01-09T07:32:37;6.50;99.90
3334;DHT22;1679;50.392;8.008;2023-01-09T07:35:05;6.50;99.90
3334;DHT22;1679;50.392;8.008;2023-01-09T07:37:31;6.50;99.90
3334;DHT22;1679;50.392;8.008;2023-01-09T07:39:56;6.50;99.90
3334;DHT22;1679;50.392;8.008;2023-01-09T07:42:22;6.50;99.90
3334;DHT22;1679;50.392;8.008;2023-01-09T07:44:47;6.50;99.90
3334;DHT22;1679;50.392;8.008;2023-01-09T07:47:13;6.60;99.90
3334;DHT22;1679;50.392;8.008;2023-01-09T07:49:38;6.60;99.90
3334;DHT22;1679;50.392;8.008;2023-01-09T07:52:04;6.60;99.90
3334;DHT22;1679;50.392;8.008;2023-01-09T07:54:29;6.60;99.90
3334;DHT22;1679;50.392;8.008;2023-01-09T07:56:55;6.60;99.90
3334;DHT22;1679;50.392;8.008;2023-01-09T07:59:21;6.60;99.90
3334;DHT22;1679;50.392;8.008;2023-01-09T08:01:50;6.60;99.90
3334;DHT22;1679;50.392;8.008;2023-01-09T08:04:15;6.70;99.90
3334;DHT22;1679;50.392;8.008;2023-01-09T08:06:41;6.70;99.90
3334;DHT22;1679;50.392;8.008;2023-01-09T08:09:07;6.70;99.90
3334;DHT22;1679;50.392;8.008;2023-01-09T08:11:32;6.70;99.90
3334;DHT22;1679;50.392;8.008;2023-01-09T08:13:58;6.70;99.90
3334;DHT22;1679;50.392;8.008;2023-01-09T08:16:23;6.70;99.90
3334;DHT22;1679;50.392;8.008;2023-01-09T08:18:49;6.70;99.90
3334;DHT22;1679;50.392;8.008;2023-01-09T08:21:15;6.70;99.90
3334;DHT22;1679;50.392;8.008;2023-01-09T08:23:41;6.70;99.90
3334;DHT22;1679;50.392;8.008;2023-01-09T08:26:07;6.70;99.90
3334;DHT22;1679;50.392;8.008;2023-01-09T08:28:32;6.70;99.90
3334;DHT22;1679;50.392;8.008;2023-01-09T08:30:58;6.70;99.90
3334;DHT22;1679;50.392;8.008;2023-01-09T08:33:23;6.70;99.90
3334;DHT22;1679;50.392;8.008;2023-01-09T08:35:49;6.70;99.90
3334;DHT22;1679;50.392;8.008;2023-01-09T08:38:17;6.70;99.90
3334;DHT22;1679;50.392;8.008;2023-01-09T08:40:45;6.70;99.90
3334;DHT22;1679;50.392;8.008;2023-01-09T08:43:11;6.80;99.90
3334;DHT22;1679;50.392;8.008;2023-01-09T08:45:57;6.80;99.90
3334;DHT22;1679;50.392;8.008;2023-01-09T08:48:41;6.80;99.90
3334;DHT22;1679;50.392;8.008;2023-01-09T08:51:08;6.90;99.90
3334;DHT22;1679;50.392;8.008;2023-01-09T08:53:33;6.90;99.90
3334;DHT22;1679;50.392;8.008;2023-01-09T08:55:59;7.00;99.90
3334;DHT22;1679;50.392;8.008;2023-01-09T08:58:24;7.00;99.90
3334;DHT22;1679;50.392;8.008;2023-01-09T09:00:51;7.00;99.90
3334;DHT22;1679;50.392;8.008;2023-01-09T09:03:18;7.00;99.90
3334;DHT22;1679;50.392;8.008;2023-01-09T09:05:43;7.00;99.90
3334;DHT22;1679;50.392;8.008;2023-01-09T09:08:09;7.00;99.90
3334;DHT22;1679;50.392;8.008;2023-01-09T09:10:35;7.10;99.90
3334;DHT22;1679;50.392;8.008;2023-01-09T09:13:00;7.20;99.90
3334;DHT22;1679;50.392;8.008;2023-01-09T09:15:26;7.30;99.90
3334;DHT22;1679;50.392;8.008;2023-01-09T09:17:55;7.30;99.90
3334;DHT22;1679;50.392;8.008;2023-01-09T09:20:23;7.30;99.90
3334;DHT22;1679;50.392;8.008;2023-01-09T09:22:49;7.20;99.90
3334;DHT22;1679;50.392;8.008;2023-01-09T09:25:15;7.20;99.90
3334;DHT22;1679;50.392;8.008;2023-01-09T09:27:42;7.20;99.90
3334;DHT22;1679;50.392;8.008;2023-01-09T09:30:08;7.20;99.90
3334;DHT22;1679;50.392;8.008;2023-01-09T09:32:34;7.30;99.90
3334;DHT22;1679;50.392;8.008;2023-01-09T09:35:00;7.30;99.90
3334;DHT22;1679;50.392;8.008;2023-01-09T09:37:25;7.30;99.90
3334;DHT22;1679;50.392;8.008;2023-01-09T09:39:51;7.30;99.90
3334;DHT22;1679;50.392;8.008;2023-01-09T09:45:46;7.30;99.90
3334;DHT22;1679;50.392;8.008;2023-01-09T09:48:35;7.30;99.90
3334;DHT22;1679;50.392;8.008;2023-01-09T09:53:50;7.30;99.90
3334;DHT22;1679;50.392;8.008;2023-01-09T09:56:21;7.30;99.90
3334;DHT22;1679;50.392;8.008;2023-01-09T09:58:50;7.30;99.90
3334;DHT22;1679;50.392;8.008;2023-01-09T10:01:22;7.20;99.90
3334;DHT22;1679;50.392;8.008;2023-01-09T10:03:56;7.30;99.90
3334;DHT22;1679;50.392;8.008;2023-01-09T10:06:34;7.30;99.90
3334;DHT22;1679;50.392;8.008;2023-01-09T10:11:56;7.30;99.90
3334;DHT22;1679;50.392;8.008;2023-01-09T10:14:22;7.40;99.90
3334;DHT22;1679;50.392;8.008;2023-01-09T10:36:48;7.60;99.90
3334;DHT22;1679;50.392;8.008;2023-01-09T10:39:27;7.60;99.90
3334;DHT22;1679;50.392;8.008;2023-01-09T10:42:10;7.70;99.90
3334;DHT22;1679;50.392;8.008;2023-01-09T10:45:34;7.70;99.90
3334;DHT22;1679;50.392;8.008;2023-01-09T10:47:58;7.60;99.90
3334;DHT22;1679;50.392;8.008;2023-01-09T10:50:49;7.60;99.90
3334;DHT22;1679;50.392;8.008;2023-01-09T10:53:21;7.60;99.90
3334;DHT22;1679;50.392;8.008;2023-01-09T10:55:53;7.60;99.90
3334;DHT22;1679;50.392;8.008;2023-01-09T10:58:20;7.70;99.90
3334;DHT22;1679;50.392;8.008;2023-01-09T11:00:47;7.70;99.90
3334;DHT22;1679;50.392;8.008;2023-01-09T11:03:16;7.80;99.90
3334;DHT22;1679;50.392;8.008;2023-01-09T11:05:42;7.80;99.90
3334;DHT22;1679;50.392;8.008;2023-01-09T11:13:23;7.80;99.90
3334;DHT22;1679;50.392;8.008;2023-01-09T11:19:00;7.90;99.90
3334;DHT22;1679;50.392;8.008;2023-01-09T11:23:55;7.90;99.90
3334;DHT22;1679;50.392;8.008;2023-01-09T11:26:25;7.90;99.90
3334;DHT22;1679;50.392;8.008;2023-01-09T11:29:06;7.90;99.90
3334;DHT22;1679;50.392;8.008;2023-01-09T11:31:33;8.00;99.90
3334;DHT22;1679;50.392;8.008;2023-01-09T11:34:15;8.00;99.90
3334;DHT22;1679;50.392;8.008;2023-01-09T11:36:42;8.10;99.90
3334;DHT22;1679;50.392;8.008;2023-01-09T11:39:20;8.10;99.90
3334;DHT22;1679;50.392;8.008;2023-01-09T11:41:52;8.20;99.90
3334;DHT22;1679;50.392;8.008;2023-01-09T11:44:20;8.20;99.90
3334;DHT22;1679;50.392;8.008;2023-01-09T11:46:47;8.30;99.90
3334;DHT22;1679;50.392;8.008;2023-01-09T11:51:43;8.50;99.90
3334;DHT22;1679;50.392;8.008;2023-01-09T11:54:16;8.50;99.90
3334;DHT22;1679;50.392;8.008;2023-01-09T11:56:43;8.50;99.90
3334;DHT22;1679;50.392;8.008;2023-01-09T11:59:12;8.50;99.90
3334;DHT22;1679;50.392;8.008;2023-01-09T12:10:03;8.50;99.90
3334;DHT22;1679;50.392;8.008;2023-01-09T12:21:44;8.20;99.90
3334;DHT22;1679;50.392;8.008;2023-01-09T12:27:20;8.20;99.90
3334;DHT22;1679;50.392;8.008;2023-01-09T12:44:30;8.20;99.90
3334;DHT22;1679;50.392;8.008;2023-01-09T12:47:19;8.20;99.90
3334;DHT22;1679;50.392;8.008;2023-01-09T12:50:19;8.10;99.90
3334;DHT22;1679;50.392;8.008;2023-01-09T12:55:46;8.20;99.90
3334;DHT22;1679;50.392;8.008;2023-01-09T13:01:21;8.20;99.90
3334;DHT22;1679;50.392;8.008;2023-01-09T13:06:22;8.10;99.90
3334;DHT22;1679;50.392;8.008;2023-01-09T13:09:04;8.00;99.90
3334;DHT22;1679;50.392;8.008;2023-01-09T13:11:47;7.90;99.90
3334;DHT22;1679;50.392;8.008;2023-01-09T13:14:24;7.90;99.90
3334;DHT22;1679;50.392;8.008;2023-01-09T13:16:55;7.90;99.90
3334;DHT22;1679;50.392;8.008;2023-01-09T13:19:33;8.00;99.90
3334;DHT22;1679;50.392;8.008;2023-01-09T13:22:02;8.00;99.90
3334;DHT22;1679;50.392;8.008;2023-01-09T13:24:50;8.00;99.90
3334;DHT22;1679;50.392;8.008;2023-01-09T13:27:20;8.00;99.90
3334;DHT22;1679;50.392;8.008;2023-01-09T13:30:02;8.00;99.90
3334;DHT22;1679;50.392;8.008;2023-01-09T13:35:17;8.00;99.90
3334;DHT22;1679;50.392;8.008;2023-01-09T13:37:49;7.90;99.90
3334;DHT22;1679;50.392;8.008;2023-01-09T13:43:15;7.90;99.90
3334;DHT22;1679;50.392;8.008;2023-01-09T13:45:41;7.90;99.90
3334;DHT22;1679;50.392;8.008;2023-01-09T13:48:23;7.80;99.90
3334;DHT22;1679;50.392;8.008;2023-01-09T13:50:49;7.90;99.90
3334;DHT22;1679;50.392;8.008;2023-01-09T13:56:04;7.80;99.90
3334;DHT22;1679;50.392;8.008;2023-01-09T13:58:56;7.80;99.90
3334;DHT22;1679;50.392;8.008;2023-01-09T14:06:35;7.80;99.90
3334;DHT22;1679;50.392;8.008;2023-01-09T14:09:18;7.80;99.90
3334;DHT22;1679;50.392;8.008;2023-01-09T14:11:44;7.80;99.90
3334;DHT22;1679;50.392;8.008;2023-01-09T14:14:27;7.70;99.90
3334;DHT22;1679;50.392;8.008;2023-01-09T14:17:00;7.70;99.90
3334;DHT22;1679;50.392;8.008;2023-01-09T14:19:40;7.70;99.90
3334;DHT22;1679;50.392;8.008;2023-01-09T14:22:06;7.60;99.90
3334;DHT22;1679;50.392;8.008;2023-01-09T14:24:41;7.60;99.90
3334;DHT22;1679;50.392;8.008;2023-01-09T14:30:31;7.50;99.90
3334;DHT22;1679;50.392;8.008;2023-01-09T14:38:50;7.30;99.90
3334;DHT22;1679;50.392;8.008;2023-01-09T14:41:44;7.20;99.90
3334;DHT22;1679;50.392;8.008;2023-01-09T14:44:39;7.30;99.90
3334;DHT22;1679;50.392;8.008;2023-01-09T14:50:07;7.30;99.90
3334;DHT22;1679;50.392;8.008;2023-01-09T14:52:58;7.30;99.90
3334;DHT22;1679;50.392;8.008;2023-01-09T14:55:53;7.20;99.90
3334;DHT22;1679;50.392;8.008;2023-01-09T15:01:15;7.10;99.90
3334;DHT22;1679;50.392;8.008;2023-01-09T15:06:29;7.10;99.90
3334;DHT22;1679;50.392;8.008;2023-01-09T15:09:05;7.00;99.90
3334;DHT22;1679;50.392;8.008;2023-01-09T15:11:33;6.90;99.90
3334;DHT22;1679;50.392;8.008;2023-01-09T15:14:01;6.90;99.90
3334;DHT22;1679;50.392;8.008;2023-01-09T15:16:27;6.80;99.90
3334;DHT22;1679;50.392;8.008;2023-01-09T15:19:00;6.60;99.90
3334;DHT22;1679;50.392;8.008;2023-01-09T15:21:28;6.40;99.90
3334;DHT22;1679;50.392;8.008;2023-01-09T15:24:20;6.30;99.90
3334;DHT22;1679;50.392;8.008;2023-01-09T15:26:56;6.20;99.90
3334;DHT22;1679;50.392;8.008;2023-01-09T15:30:00;6.20;99.90
3334;DHT22;1679;50.392;8.008;2023-01-09T15:32:47;6.10;99.90
3334;DHT22;1679;50.392;8.008;2023-01-09T15:35:15;6.10;99.90
3334;DHT22;1679;50.392;8.008;2023-01-09T15:37:41;6.10;99.90
3334;DHT22;1679;50.392;8.008;2023-01-09T15:40:18;6.10;99.90
3334;DHT22;1679;50.392;8.008;2023-01-09T15:42:46;6.10;99.90
3334;DHT22;1679;50.392;8.008;2023-01-09T15:45:38;6.00;99.90
3334;DHT22;1679;50.392;8.008;2023-01-09T15:48:14;6.00;99.90
3334;DHT22;1679;50.392;8.008;2023-01-09T15:50:43;6.00;99.90
3334;DHT22;1679;50.392;8.008;2023-01-09T15:53:21;6.00;99.90
3334;DHT22;1679;50.392;8.008;2023-01-09T15:58:41;6.00;99.90
3334;DHT22;1679;50.392;8.008;2023-01-09T16:01:24;6.00;99.90
3334;DHT22;1679;50.392;8.008;2023-01-09T16:04:16;5.90;99.90
3334;DHT22;1679;50.392;8.008;2023-01-09T16:06:47;5.80;99.90
3334;DHT22;1679;50.392;8.008;2023-01-09T16:09:24;5.70;99.90
3334;DHT22;1679;50.392;8.008;2023-01-09T16:11:54;5.70;99.90
3334;DHT22;1679;50.392;8.008;2023-01-09T16:14:24;5.60;99.90
3334;DHT22;1679;50.392;8.008;2023-01-09T16:16:53;5.60;99.90
3334;DHT22;1679;50.392;8.008;2023-01-09T16:21:59;5.70;99.90
3334;DHT22;1679;50.392;8.008;2023-01-09T16:24:27;5.70;99.90
3334;DHT22;1679;50.392;8.008;2023-01-09T16:27:18;5.70;99.90
3334;DHT22;1679;50.392;8.008;2023-01-09T16:29:51;5.70;99.90
3334;DHT22;1679;50.392;8.008;2023-01-09T16:32:32;5.70;99.90
3334;DHT22;1679;50.392;8.008;2023-01-09T16:35:03;5.70;99.90
3334;DHT22;1679;50.392;8.008;2023-01-09T16:37:30;5.60;99.90
3334;DHT22;1679;50.392;8.008;2023-01-09T16:42:58;5.60;99.90
3334;DHT22;1679;50.392;8.008;2023-01-09T16:45:31;5.60;99.90
3334;DHT22;1679;50.392;8.008;2023-01-09T16:47:57;5.60;99.90
3334;DHT22;1679;50.392;8.008;2023-01-09T16:50:23;5.60;99.90
3334;DHT22;1679;50.392;8.008;2023-01-09T16:52:50;5.70;99.90
3334;DHT22;1679;50.392;8.008;2023-01-09T16:55:15;5.60;99.90
3334;DHT22;1679;50.392;8.008;2023-01-09T16:57:41;5.60;99.90
3334;DHT22;1679;50.392;8.008;2023-01-09T17:00:17;5.60;99.90
3334;DHT22;1679;50.392;8.008;2023-01-09T17:02:43;5.60;99.90
3334;DHT22;1679;50.392;8.008;2023-01-09T17:05:10;5.60;99.90
3334;DHT22;1679;50.392;8.008;2023-01-09T17:07:37;5.60;99.90
3334;DHT22;1679;50.392;8.008;2023-01-09T17:10:04;5.60;99.90
3334;DHT22;1679;50.392;8.008;2023-01-09T17:12:30;5.60;99.90
3334;DHT22;1679;50.392;8.008;2023-01-09T17:14:55;5.60;99.90
3334;DHT22;1679;50.392;8.008;2023-01-09T17:17:21;5.50;99.90
3334;DHT22;1679;50.392;8.008;2023-01-09T17:19:46;5.50;99.90
3334;DHT22;1679;50.392;8.008;2023-01-09T17:22:13;5.60;99.90
3334;DHT22;1679;50.392;8.008;2023-01-09T17:24:39;5.60;99.90
3334;DHT22;1679;50.392;8.008;2023-01-09T17:27:34;5.60;99.90
3334;DHT22;1679;50.392;8.008;2023-01-09T17:30:19;5.60;99.90
3334;DHT22;1679;50.392;8.008;2023-01-09T17:32:45;5.60;99.90
3334;DHT22;1679;50.392;8.008;2023-01-09T17:35:11;5.60;99.90
3334;DHT22;1679;50.392;8.008;2023-01-09T17:37:43;5.60;99.90
3334;DHT22;1679;50.392;8.008;2023-01-09T17:40:19;5.60;99.90
3334;DHT22;1679;50.392;8.008;2023-01-09T17:42:45;5.50;99.90
3334;DHT22;1679;50.392;8.008;2023-01-09T17:45:11;5.50;99.90
3334;DHT22;1679;50.392;8.008;2023-01-09T17:47:37;5.40;99.90
3334;DHT22;1679;50.392;8.008;2023-01-09T17:50:03;5.40;99.90
3334;DHT22;1679;50.392;8.008;2023-01-09T17:52:30;5.40;99.90
3334;DHT22;1679;50.392;8.008;2023-01-09T17:54:58;5.40;99.90
3334;DHT22;1679;50.392;8.008;2023-01-09T17:57:30;5.40;99.90
3334;DHT22;1679;50.392;8.008;2023-01-09T17:59:57;5.40;99.90
3334;DHT22;1679;50.392;8.008;2023-01-09T18:02:23;5.40;99.90
3334;DHT22;1679;50.392;8.008;2023-01-09T18:04:48;5.30;99.90
3334;DHT22;1679;50.392;8.008;2023-01-09T18:07:15;5.30;99.90
3334;DHT22;1679;50.392;8.008;2023-01-09T18:09:42;5.30;99.90
3334;DHT22;1679;50.392;8.008;2023-01-09T18:12:08;5.30;99.90
3334;DHT22;1679;50.392;8.008;2023-01-09T18:14:33;5.20;99.90
3334;DHT22;1679;50.392;8.008;2023-01-09T18:17:00;5.20;99.90
3334;DHT22;1679;50.392;8.008;2023-01-09T18:19:26;5.20;99.90
3334;DHT22;1679;50.392;8.008;2023-01-09T18:21:52;5.10;99.90
3334;DHT22;1679;50.392;8.008;2023-01-09T18:24:17;5.00;99.90
3334;DHT22;1679;50.392;8.008;2023-01-09T18:26:43;5.10;99.90
3334;DHT22;1679;50.392;8.008;2023-01-09T18:29:08;5.10;99.90
3334;DHT22;1679;50.392;8.008;2023-01-09T18:31:35;5.20;99.90
3334;DHT22;1679;50.392;8.008;2023-01-09T18:34:02;5.30;99.90
3334;DHT22;1679;50.392;8.008;2023-01-09T18:36:30;5.30;99.90
3334;DHT22;1679;50.392;8.008;2023-01-09T18:38:57;5.40;99.90
3334;DHT22;1679;50.392;8.008;2023-01-09T18:41:23;5.40;99.90
3334;DHT22;1679;50.392;8.008;2023-01-09T18:43:57;5.40;99.90
3334;DHT22;1679;50.392;8.008;2023-01-09T18:46:26;5.50;99.90
3334;DHT22;1679;50.392;8.008;2023-01-09T18:49:04;5.50;99.90
3334;DHT22;1679;50.392;8.008;2023-01-09T18:51:31;5.50;99.90
3334;DHT22;1679;50.392;8.008;2023-01-09T18:53:58;5.50;99.90
3334;DHT22;1679;50.392;8.008;2023-01-09T18:56:25;5.50;99.90
3334;DHT22;1679;50.392;8.008;2023-01-09T18:58:54;5.50;99.90
3334;DHT22;1679;50.392;8.008;2023-01-09T19:01:22;5.50;99.90
3334;DHT22;1679;50.392;8.008;2023-01-09T19:03:47;5.50;99.90